Time;durP1;ratioP1;P1;durP2;ratioP2;P2;SDS_P1;SDS_P2;PMS_P1;PMS_P2;Temp;Humidity;BMP_temperature;BMP_pressure;BME280_temperature;BME280_humidity;BME280_pressure;Samples;Min_cycle;Max_cycle;Signal;HPM_P1;HPM_P2
2021/01/15 00:02:02;;;;;;;3.10;2.30;;;;;;;-1.63;58.66;94187.31;4132614;28;20073;-82
2021/01/15 00:04:04;;;;;;;5.30;2.88;;;;;;;-1.55;59.06;94185.94;4128970;28;20049;-70
2021/01/15 00:06:06;;;;;;;4.65;2.55;;;;;;;-1.57;58.93;94204.91;4115203;28;20077;-70
2021/01/15 00:08:07;;;;;;;7.10;2.70;;;;;;;-1.70;59.27;94187.75;4130190;28;20569;-70
2021/01/15 00:10:09;;;;;;;3.60;2.40;;;;;;;-1.67;59.63;94186.72;4127621;28;20055;-71
2021/01/15 00:12:12;;;;;;;5.60;3.05;;;;;;;-1.67;59.51;94197.81;4128458;28;20420;-72
2021/01/15 00:14:13;;;;;;;4.78;3.00;;;;;;;-1.60;59.44;94200.78;4127596;28;20129;-71
2021/01/15 00:16:36;;;;;;;4.00;2.70;;;;;;;-1.61;59.90;94208.59;4122148;28;20057;-70
2021/01/15 00:18:37;;;;;;;4.22;2.83;;;;;;;-1.62;60.08;94206.97;4132102;28;20054;-72
2021/01/15 00:20:39;;;;;;;9.38;2.95;;;;;;;-1.58;59.95;94203.28;4128687;28;20082;-70
2021/01/15 00:22:43;;;;;;;4.32;2.78;;;;;;;-1.63;60.28;94205.28;4128155;28;20053;-70
2021/01/15 00:24:44;;;;;;;4.28;2.78;;;;;;;-1.55;59.93;94198.78;4128863;28;20133;-71
2021/01/15 00:26:47;;;;;;;4.45;2.90;;;;;;;-1.70;60.27;94195.44;4127774;28;20270;-71
2021/01/15 00:28:49;;;;;;;4.25;2.92;;;;;;;-1.66;60.24;94196.03;4123056;28;20050;-70
2021/01/15 00:30:50;;;;;;;5.28;2.92;;;;;;;-1.80;60.45;94204.63;4122685;28;20047;-70
2021/01/15 00:32:51;;;;;;;4.22;2.90;;;;;;;-1.89;61.07;94211.19;4126715;28;20061;-71
2021/01/15 00:34:53;;;;;;;4.35;2.83;;;;;;;-1.90;60.96;94193.28;4130258;28;20073;-72
2021/01/15 00:36:54;;;;;;;4.30;3.10;;;;;;;-1.90;61.00;94188.97;4126925;28;20063;-70
2021/01/15 00:38:55;;;;;;;4.20;2.88;;;;;;;-1.81;60.50;94185.00;4129395;28;20376;-71
2021/01/15 00:41:01;;;;;;;4.45;2.88;;;;;;;-1.86;60.61;94182.72;4128985;28;20050;-71
2021/01/15 00:43:02;;;;;;;3.80;2.80;;;;;;;-1.88;60.56;94187.13;4123601;28;20455;-71
2021/01/15 00:45:04;;;;;;;4.97;2.92;;;;;;;-1.89;60.65;94194.97;4126802;28;20372;-71
2021/01/15 00:47:06;;;;;;;4.82;3.22;;;;;;;-1.94;60.87;94184.13;4130410;28;20629;-70
2021/01/15 00:49:08;;;;;;;3.95;2.75;;;;;;;-1.96;60.95;94186.78;4129120;28;20058;-70
2021/01/15 00:51:09;;;;;;;4.35;2.90;;;;;;;-1.88;60.96;94202.53;4133125;28;20418;-71
2021/01/15 00:53:11;;;;;;;4.43;2.88;;;;;;;-2.02;61.28;94196.63;4128121;28;20112;-70
2021/01/15 00:55:12;;;;;;;4.60;2.88;;;;;;;-1.98;61.00;94195.50;4128452;28;20606;-72
2021/01/15 00:57:13;;;;;;;5.50;3.17;;;;;;;-1.91;61.01;94204.50;4123968;28;20108;-71
2021/01/15 00:59:15;;;;;;;5.25;3.25;;;;;;;-1.88;60.81;94212.81;4132849;28;20136;-70
2021/01/15 01:01:18;;;;;;;4.10;3.13;;;;;;;-1.99;61.21;94201.59;4131802;28;20045;-71
2021/01/15 01:03:19;;;;;;;6.10;3.10;;;;;;;-1.92;61.06;94211.34;4126542;28;20488;-69
2021/01/15 01:05:21;;;;;;;4.60;3.10;;;;;;;-1.90;61.45;94203.56;4127129;28;20073;-69
2021/01/15 01:07:22;;;;;;;4.40;3.03;;;;;;;-1.91;61.23;94213.03;4128480;28;20046;-71
2021/01/15 01:09:24;;;;;;;4.60;3.30;;;;;;;-1.89;61.35;94215.50;4126253;28;20092;-69
2021/01/15 01:11:25;;;;;;;4.10;3.13;;;;;;;-1.84;61.00;94226.28;4128976;28;20058;-72
2021/01/15 01:13:26;;;;;;;3.92;2.90;;;;;;;-1.72;60.96;94222.97;4129238;28;20488;-69
2021/01/15 01:15:28;;;;;;;5.00;3.13;;;;;;;-1.75;60.97;94223.13;4144014;28;20544;-70
2021/01/15 01:17:29;;;;;;;4.22;2.85;;;;;;;-1.73;60.59;94233.31;4138822;28;20057;-70
2021/01/15 01:19:30;;;;;;;4.40;3.00;;;;;;;-1.81;60.67;94228.66;4137942;28;20050;-72
2021/01/15 01:21:34;;;;;;;4.82;3.20;;;;;;;-1.74;60.80;94235.06;4135693;28;20050;-82
2021/01/15 01:23:36;;;;;;;5.15;3.28;;;;;;;-1.68;60.46;94234.69;4141275;28;20475;-82
2021/01/15 01:25:37;;;;;;;4.35;3.05;;;;;;;-1.67;59.83;94230.38;4130376;28;20057;-82
2021/01/15 01:27:38;;;;;;;3.85;2.72;;;;;;;-1.63;59.48;94230.97;4121703;28;20051;-81
2021/01/15 01:29:39;;;;;;;4.43;2.88;;;;;;;-1.70;59.76;94230.53;4126507;28;20150;-83
2021/01/15 01:31:40;;;;;;;4.53;3.25;;;;;;;-1.63;59.53;94219.00;4132546;28;20050;-82
2021/01/15 01:33:42;;;;;;;5.15;2.95;;;;;;;-1.55;59.57;94228.75;4135700;28;20166;-79
2021/01/15 01:35:43;;;;;;;5.82;3.25;;;;;;;-1.53;59.19;94224.34;4130415;28;20043;-71
2021/01/15 01:37:45;;;;;;;6.32;3.50;;;;;;;-1.45;59.09;94222.13;4131527;28;20054;-71
2021/01/15 01:39:46;;;;;;;5.88;3.83;;;;;;;-1.52;58.90;94231.97;4133560;28;20550;-71
2021/01/15 01:41:47;;;;;;;4.93;3.05;;;;;;;-1.41;58.54;94238.16;4124775;28;20063;-70
2021/01/15 01:43:49;;;;;;;4.93;3.10;;;;;;;-1.39;58.59;94236.31;4114954;28;20056;-71
2021/01/15 01:45:50;;;;;;;4.53;3.25;;;;;;;-1.40;58.39;94238.03;4127195;28;20065;-71
2021/01/15 01:47:53;;;;;;;4.53;3.00;;;;;;;-1.43;58.11;94251.09;4132541;28;20046;-70
2021/01/15 01:49:54;;;;;;;4.05;3.05;;;;;;;-1.40;58.50;94248.31;4131471;28;20141;-70
2021/01/15 01:51:57;;;;;;;3.60;2.60;;;;;;;-1.48;58.52;94256.53;4131245;28;20050;-71
2021/01/15 01:53:59;;;;;;;3.88;3.00;;;;;;;-1.41;58.50;94256.16;4130212;28;20109;-70
2021/01/15 01:56:03;;;;;;;4.65;3.22;;;;;;;-1.48;59.37;94248.81;4129006;28;20557;-70
2021/01/15 01:58:05;;;;;;;5.22;3.50;;;;;;;-1.56;58.64;94258.75;4125226;28;20130;-70
2021/01/15 02:00:08;;;;;;;6.00;3.30;;;;;;;-1.55;59.15;94255.28;4121457;28;20408;-69
2021/01/15 02:02:09;;;;;;;6.32;3.00;;;;;;;-1.54;59.08;94248.41;4131852;28;20451;-70
2021/01/15 02:04:11;;;;;;;6.60;3.42;;;;;;;-1.50;59.42;94252.44;4130864;28;20542;-70
2021/01/15 02:06:14;;;;;;;5.75;3.53;;;;;;;-1.53;59.41;94250.84;4131711;28;20133;-71
2021/01/15 02:08:15;;;;;;;4.63;3.20;;;;;;;-1.53;59.60;94242.31;4117632;28;20718;-70
2021/01/15 02:10:33;;;;;;;7.22;3.88;;;;;;;-1.45;59.76;94245.25;4122851;28;20181;-71
2021/01/15 02:12:56;;;;;;;5.15;3.15;;;;;;;-1.50;59.62;94252.44;4114463;28;20054;-71
2021/01/15 02:15:06;;;;;;;5.10;3.42;;;;;;;-1.60;59.98;94252.16;4113075;28;20162;-70
2021/01/15 02:17:08;;;;;;;5.25;3.15;;;;;;;-1.61;59.81;94254.81;4115682;28;20057;-71
2021/01/15 02:19:28;;;;;;;6.05;3.05;;;;;;;-1.55;60.04;94259.56;4101835;28;20131;-70
2021/01/15 02:22:07;;;;;;;5.10;3.70;;;;;;;-1.54;60.43;94263.81;4122078;28;20058;-70
2021/01/15 02:24:16;;;;;;;5.78;3.35;;;;;;;-1.58;60.49;94259.78;4123556;28;20058;-69
2021/01/15 02:26:52;;;;;;;5.00;3.25;;;;;;;-1.58;60.73;94264.94;4116442;28;20069;-70
2021/01/15 02:28:53;;;;;;;4.82;3.63;;;;;;;-1.59;60.82;94266.69;4126594;28;20101;-72
2021/01/15 02:31:44;;;;;;;5.10;3.35;;;;;;;-1.66;60.93;94279.06;4116631;28;20218;-71
2021/01/15 02:33:54;;;;;;;6.50;4.03;;;;;;;-1.74;61.55;94276.16;4127909;28;20154;-70
2021/01/15 02:36:08;;;;;;;5.40;3.78;;;;;;;-1.69;61.32;94274.13;4129110;28;20050;-70
2021/01/15 02:38:20;;;;;;;5.55;3.60;;;;;;;-1.76;61.58;94272.88;4113511;28;20134;-71
2021/01/15 02:40:39;;;;;;;6.05;3.65;;;;;;;-1.66;61.66;94270.53;4112529;28;20472;-70
2021/01/15 02:42:40;;;;;;;6.15;3.53;;;;;;;-1.62;61.18;94260.91;4115123;28;20062;-71
2021/01/15 02:44:48;;;;;;;4.97;3.50;;;;;;;-1.67;61.48;94269.72;4131583;28;20134;-71
2021/01/15 02:47:00;;;;;;;5.75;3.45;;;;;;;-1.70;61.09;94257.06;4126538;28;20521;-69
2021/01/15 02:49:01;;;;;;;5.45;3.60;;;;;;;-1.74;61.73;94268.47;4128397;28;20046;-72
2021/01/15 02:51:03;;;;;;;5.03;3.70;;;;;;;-1.66;61.57;94257.69;4130102;28;20060;-70
2021/01/15 02:53:04;;;;;;;4.43;3.05;;;;;;;-1.75;62.22;94264.22;4131158;28;20042;-70
2021/01/15 02:55:06;;;;;;;4.95;3.45;;;;;;;-1.77;61.77;94260.94;4128276;28;20148;-71
2021/01/15 02:57:07;;;;;;;6.05;3.83;;;;;;;-1.78;62.09;94255.91;4130320;28;20092;-70
2021/01/15 02:59:09;;;;;;;5.00;3.58;;;;;;;-1.86;61.88;94266.63;4130966;28;20057;-71
2021/01/15 03:01:10;;;;;;;5.95;3.70;;;;;;;-1.80;61.90;94273.97;4110765;28;20146;-70
2021/01/15 03:03:32;;;;;;;5.60;3.90;;;;;;;-1.75;62.18;94284.78;4129357;28;20089;-70
2021/01/15 03:06:00;;;;;;;6.03;4.40;;;;;;;-1.79;62.20;94273.03;4112675;28;20089;-70
2021/01/15 03:08:03;;;;;;;5.13;3.75;;;;;;;-1.74;62.11;94278.72;4128237;28;20046;-71
2021/01/15 03:10:05;;;;;;;6.63;3.90;;;;;;;-1.69;61.68;94279.25;4129518;28;20129;-70
2021/01/15 03:12:07;;;;;;;6.22;4.07;;;;;;;-1.67;61.95;94290.25;4129613;28;20065;-70
2021/01/15 03:14:09;;;;;;;5.90;4.28;;;;;;;-1.70;61.93;94280.19;4129508;28;20052;-71
2021/01/15 03:16:14;;;;;;;5.65;3.75;;;;;;;-1.60;61.58;94282.16;4128146;28;20124;-72
2021/01/15 03:18:16;;;;;;;5.38;3.72;;;;;;;-1.62;61.61;94284.81;4126227;28;20499;-70
2021/01/15 03:20:18;;;;;;;7.32;4.20;;;;;;;-1.55;61.21;94291.25;4128784;28;20065;-71
2021/01/15 03:22:21;;;;;;;5.65;3.85;;;;;;;-1.59;61.31;94288.94;4130955;28;20050;-71
2021/01/15 03:24:26;;;;;;;5.35;3.85;;;;;;;-1.61;61.83;94288.22;4129765;28;20046;-71
2021/01/15 03:26:28;;;;;;;6.15;4.00;;;;;;;-1.60;61.37;94292.44;4129052;28;20133;-70
2021/01/15 03:28:29;;;;;;;5.60;3.90;;;;;;;-1.60;61.56;94288.13;4128989;28;20054;-70
2021/01/15 03:30:31;;;;;;;6.57;4.25;;;;;;;-1.55;61.32;94280.13;4123219;28;20058;-69
2021/01/15 03:32:32;;;;;;;7.18;4.20;;;;;;;-1.64;61.39;94286.66;4114498;28;20054;-70
2021/01/15 03:34:33;;;;;;;8.27;4.80;;;;;;;-1.60;61.87;94288.13;4123677;28;20141;-71
2021/01/15 03:36:35;;;;;;;6.30;4.30;;;;;;;-1.62;61.81;94284.00;4124096;28;20050;-70
2021/01/15 03:38:36;;;;;;;7.20;4.53;;;;;;;-1.59;61.73;94284.66;4110143;28;20090;-71
2021/01/15 03:40:39;;;;;;;6.13;4.15;;;;;;;-1.54;61.63;94286.94;4124787;28;20061;-70
2021/01/15 03:42:41;;;;;;;7.22;4.53;;;;;;;-1.57;61.81;94287.09;4128144;28;20057;-70
2021/01/15 03:44:42;;;;;;;7.90;4.75;;;;;;;-1.57;61.38;94290.53;4129174;28;20046;-70
2021/01/15 03:46:43;;;;;;;8.90;4.43;;;;;;;-1.58;61.56;94291.44;4128747;28;20087;-70
2021/01/15 03:48:48;;;;;;;6.53;4.97;;;;;;;-1.57;61.49;94297.38;4133282;28;20499;-80
2021/01/15 03:50:50;;;;;;;7.68;4.63;;;;;;;-1.54;61.72;94307.47;4120089;28;20467;-81
2021/01/15 03:52:51;;;;;;;6.35;4.15;;;;;;;-1.56;61.97;94294.72;4132844;28;20129;-84
2021/01/15 03:54:52;;;;;;;8.32;4.25;;;;;;;-1.51;61.67;94297.00;4133112;28;20132;-82
2021/01/15 03:56:54;;;;;;;5.65;4.00;;;;;;;-1.46;61.71;94289.84;4131830;28;20050;-81
2021/01/15 03:58:55;;;;;;;5.72;4.35;;;;;;;-1.43;60.86;94293.97;4117859;28;20054;-84
2021/01/15 04:00:57;;;;;;;6.20;4.15;;;;;;;-1.41;61.23;94294.69;4118934;28;20050;-81
2021/01/15 04:02:59;;;;;;;4.47;3.30;;;;;;;-1.49;60.99;94306.25;4132777;28;20053;-81
2021/01/15 04:05:00;;;;;;;6.40;4.25;;;;;;;-1.40;61.22;94288.63;4132295;28;20166;-83
2021/01/15 04:07:02;;;;;;;7.40;4.15;;;;;;;-1.48;61.15;94287.38;4120543;28;20065;-70
2021/01/15 04:09:03;;;;;;;5.30;3.85;;;;;;;-1.39;61.35;94296.25;4124642;28;20563;-71
2021/01/15 04:11:04;;;;;;;6.30;4.40;;;;;;;-1.36;60.93;94295.22;4128650;28;20184;-70
2021/01/15 04:13:06;;;;;;;6.43;3.83;;;;;;;-1.36;60.59;94298.59;4129664;28;20480;-70
2021/01/15 04:15:11;;;;;;;5.15;4.03;;;;;;;-1.36;60.89;94305.50;4121621;28;20154;-71
2021/01/15 04:17:12;;;;;;;6.25;3.70;;;;;;;-1.42;61.08;94311.00;4113044;28;20405;-71
2021/01/15 04:19:13;;;;;;;6.60;4.60;;;;;;;-1.52;61.03;94321.88;4113690;28;20594;-70
2021/01/15 04:21:16;;;;;;;6.18;4.50;;;;;;;-1.48;61.57;94322.53;4126204;28;20054;-70
2021/01/15 04:23:17;;;;;;;7.40;3.70;;;;;;;-1.52;61.52;94328.75;4116000;28;20217;-71
2021/01/15 04:25:18;;;;;;;5.57;4.28;;;;;;;-1.57;60.90;94329.06;4128369;28;20415;-70
2021/01/15 04:27:19;;;;;;;6.80;4.60;;;;;;;-1.53;61.26;94330.47;4112829;28;20070;-70
2021/01/15 04:29:21;;;;;;;6.22;4.00;;;;;;;-1.57;60.90;94321.34;4121779;28;20352;-69
2021/01/15 04:31:22;;;;;;;4.32;3.42;;;;;;;-1.53;60.95;94329.66;4128935;28;20054;-82
2021/01/15 04:33:23;;;;;;;5.43;3.63;;;;;;;-1.49;60.78;94336.25;4132876;28;20042;-81
2021/01/15 04:35:24;;;;;;;5.47;3.95;;;;;;;-1.56;60.64;94332.44;4136681;28;20050;-82
2021/01/15 04:37:25;;;;;;;6.68;3.72;;;;;;;-1.58;61.07;94329.97;4145065;28;20042;-82
2021/01/15 04:39:27;;;;;;;5.82;3.80;;;;;;;-1.59;60.90;94327.47;4140171;28;20050;-81
2021/01/15 04:41:28;;;;;;;9.65;4.28;;;;;;;-1.57;61.17;94323.91;4144536;28;20113;-80
2021/01/15 04:43:31;;;;;;;6.30;3.97;;;;;;;-1.50;61.04;94327.75;4143058;28;20043;-84
2021/01/15 04:45:32;;;;;;;5.13;3.78;;;;;;;-1.53;61.09;94324.53;4134847;28;20058;-82
2021/01/15 04:47:41;;;;;;;7.28;4.10;;;;;;;-1.45;60.98;94335.16;4133249;28;20074;-84
2021/01/15 04:49:44;;;;;;;6.03;4.18;;;;;;;-1.42;60.74;94326.44;4133263;28;20074;-83
2021/01/15 04:51:46;;;;;;;6.78;4.88;;;;;;;-1.41;61.04;94336.63;4131005;28;20516;-70
2021/01/15 04:54:03;;;;;;;8.13;4.35;;;;;;;-1.57;61.09;94338.47;4126538;28;20559;-71
2021/01/15 04:56:12;;;;;;;5.38;3.50;;;;;;;-1.64;61.40;94327.75;4131282;28;20050;-82
2021/01/15 04:58:15;;;;;;;6.03;4.38;;;;;;;-1.65;61.64;94341.53;4138250;28;20100;-79
2021/01/15 05:00:24;;;;;;;6.32;4.50;;;;;;;-1.58;61.51;94340.22;4137076;28;20054;-82
2021/01/15 05:02:27;;;;;;;5.93;4.32;;;;;;;-1.50;61.01;94347.47;4132983;28;20062;-82
2021/01/15 05:04:29;;;;;;;6.15;4.20;;;;;;;-1.48;61.64;94348.22;4132723;28;20049;-82
2021/01/15 05:06:42;;;;;;;8.05;4.70;;;;;;;-1.53;61.49;94347.66;4131587;28;20051;-83
2021/01/15 05:08:57;;;;;;;5.45;4.10;;;;;;;-1.52;61.30;94351.88;4136019;28;20116;-84
2021/01/15 05:10:58;;;;;;;6.25;4.20;;;;;;;-1.49;61.48;94339.66;4125042;28;20050;-83
2021/01/15 05:13:05;;;;;;;5.75;4.60;;;;;;;-1.56;61.42;94346.09;4132459;28;20066;-82
2021/01/15 05:15:10;;;;;;;5.30;4.30;;;;;;;-1.60;61.65;94343.81;4133218;28;20121;-83
2021/01/15 05:17:12;;;;;;;6.00;4.30;;;;;;;-1.55;61.61;94349.47;4132284;28;20058;-82
2021/01/15 05:19:14;;;;;;;6.45;4.13;;;;;;;-1.48;61.74;94361.88;4133879;28;20050;-83
2021/01/15 05:21:15;;;;;;;8.27;4.72;;;;;;;-1.42;61.71;94367.53;4132149;28;20092;-82
2021/01/15 05:23:17;;;;;;;7.50;4.78;;;;;;;-1.43;61.05;94364.16;4133466;28;20042;-84
2021/01/15 05:25:18;;;;;;;6.10;4.50;;;;;;;-1.38;61.49;94362.09;4131767;28;20054;-82
2021/01/15 05:29:39;;;;;;;5.60;3.90;;;;;;;-1.47;61.75;94370.41;4132360;28;20062;-82
2021/01/15 05:31:53;;;;;;;9.80;5.97;;;;;;;-1.43;61.95;94356.44;4129210;28;20050;-72
2021/01/15 05:34:03;;;;;;;8.30;5.15;;;;;;;-1.39;61.45;94370.75;4118737;28;20440;-82
2021/01/15 05:36:05;;;;;;;7.18;4.72;;;;;;;-1.42;61.41;94377.81;4111852;28;20495;-70
2021/01/15 05:38:06;;;;;;;6.00;4.40;;;;;;;-1.42;61.72;94383.78;4124550;28;20046;-84
2021/01/15 05:40:09;;;;;;;7.82;4.93;;;;;;;-1.47;61.89;94383.25;4142534;28;20055;-81
2021/01/15 05:42:10;;;;;;;5.78;4.50;;;;;;;-1.47;61.60;94381.50;4136322;28;20496;-83
2021/01/15 05:44:24;;;;;;;6.85;4.88;;;;;;;-1.39;61.49;94385.34;4135545;28;20050;-84
2021/01/15 05:46:26;;;;;;;7.07;4.93;;;;;;;-1.43;61.69;94384.72;4134750;28;20463;-82
2021/01/15 05:48:27;;;;;;;9.93;4.85;;;;;;;-1.36;61.57;94382.56;4133928;28;20054;-84
2021/01/15 05:50:39;;;;;;;7.38;5.18;;;;;;;-1.30;61.28;94392.47;4132506;28;20082;-86
2021/01/15 05:52:57;;;;;;;8.90;5.35;;;;;;;-1.33;61.42;94393.50;4133559;28;20046;-86
2021/01/15 05:54:59;;;;;;;8.82;5.22;;;;;;;-1.29;61.07;94399.25;4131378;28;20081;-83
2021/01/15 05:57:01;;;;;;;8.77;5.35;;;;;;;-1.35;61.41;94400.47;4131753;28;20054;-83
2021/01/15 05:59:10;;;;;;;8.30;5.05;;;;;;;-1.35;61.57;94403.06;4131296;28;20132;-82
2021/01/15 06:01:11;;;;;;;10.05;5.03;;;;;;;-1.34;61.75;94406.44;4133985;28;20559;-83
2021/01/15 06:03:13;;;;;;;8.95;5.40;;;;;;;-1.31;61.54;94406.28;4132463;28;20050;-84
2021/01/15 06:05:16;;;;;;;9.25;5.57;;;;;;;-1.30;61.55;94413.84;4130424;28;20496;-83
2021/01/15 06:07:19;;;;;;;9.00;5.53;;;;;;;-1.29;61.32;94417.25;4133148;28;20133;-81
2021/01/15 06:09:21;;;;;;;7.43;5.97;;;;;;;-1.30;61.61;94420.75;4131500;28;20060;-84
2021/01/15 06:11:23;;;;;;;13.60;7.35;;;;;;;-1.34;61.73;94422.69;4131025;28;20089;-84
2021/01/15 06:13:38;;;;;;;13.30;7.00;;;;;;;-1.38;61.41;94418.63;4130855;28;20043;-83
2021/01/15 06:15:46;;;;;;;8.88;6.20;;;;;;;-1.37;61.68;94428.00;4130850;28;20058;-83
2021/01/15 06:17:52;;;;;;;7.43;5.65;;;;;;;-1.37;61.63;94430.59;4133095;28;20054;-85
2021/01/15 06:19:59;;;;;;;7.05;4.78;;;;;;;-1.42;61.52;94426.63;4133181;28;20110;-71
2021/01/15 06:22:00;;;;;;;5.68;4.45;;;;;;;-1.42;61.50;94435.16;4131604;28;20061;-72
2021/01/15 06:24:04;;;;;;;9.18;4.60;;;;;;;-1.37;61.52;94434.91;4130373;28;20057;-72
2021/01/15 06:26:09;;;;;;;7.90;4.47;;;;;;;-1.26;61.28;94435.88;4128503;28;20058;-71
2021/01/15 06:28:13;;;;;;;5.63;4.85;;;;;;;-1.22;60.35;94446.00;4146626;28;20085;-85
2021/01/15 06:30:16;;;;;;;6.78;4.72;;;;;;;-1.32;60.98;94436.25;4104595;28;20058;-72
2021/01/15 06:32:24;;;;;;;6.78;4.32;;;;;;;-1.21;61.26;94440.75;4129452;28;20171;-71
2021/01/15 06:34:29;;;;;;;7.32;4.95;;;;;;;-1.11;61.17;94443.56;4131521;28;20069;-71
2021/01/15 06:36:50;;;;;;;9.55;4.57;;;;;;;-1.04;60.47;94442.28;4130609;28;20073;-72
2021/01/15 06:38:51;;;;;;;10.27;5.13;;;;;;;-1.00;60.27;94455.78;4114528;28;20054;-71
2021/01/15 06:40:53;;;;;;;6.18;4.35;;;;;;;-0.99;59.87;94463.41;4119845;28;20118;-71
2021/01/15 06:42:55;;;;;;;7.13;5.20;;;;;;;-1.06;59.95;94456.97;4129140;28;20069;-72
2021/01/15 06:44:57;;;;;;;7.20;5.03;;;;;;;-1.10;59.86;94465.78;4129181;28;20173;-74
2021/01/15 06:47:02;;;;;;;9.07;5.15;;;;;;;-1.07;59.78;94470.75;4131147;28;20158;-73
2021/01/15 06:49:05;;;;;;;7.97;5.07;;;;;;;-0.98;59.69;94467.59;4129564;28;20054;-72
2021/01/15 06:51:07;;;;;;;7.50;4.93;;;;;;;-1.04;59.79;94480.84;4131027;28;20054;-70
2021/01/15 06:53:19;;;;;;;12.20;4.70;;;;;;;-0.98;59.93;94472.75;4131205;28;20056;-72
2021/01/15 06:55:24;;;;;;;10.52;5.43;;;;;;;-0.87;59.36;94477.22;4125660;28;20433;-72
2021/01/15 06:57:29;;;;;;;7.25;5.00;;;;;;;-0.87;59.40;94480.63;4128136;28;20054;-72
2021/01/15 06:59:32;;;;;;;6.93;4.93;;;;;;;-0.81;59.05;94484.56;4130092;28;20048;-70
2021/01/15 07:02:07;;;;;;;8.43;4.80;;;;;;;-0.77;58.92;94488.59;4136780;28;20434;-70
2021/01/15 07:04:18;;;;;;;;;;;;;;;-0.83;58.76;94494.94;4133641;28;20097;-72
2021/01/15 07:06:28;;;;;;;8.48;5.38;;;;;;;-0.91;58.75;94502.28;4141829;28;19936;-71
2021/01/15 07:08:31;;;;;;;8.00;5.07;;;;;;;-0.96;59.16;94508.66;4131407;28;20078;-71
2021/01/15 07:10:32;;;;;;;8.85;5.63;;;;;;;-1.11;59.83;94505.28;4129743;28;20054;-71
2021/01/15 07:12:56;;;;;;;8.20;5.50;;;;;;;-1.13;60.02;94507.13;4117129;28;20086;-72
2021/01/15 07:14:58;;;;;;;5.45;4.22;;;;;;;-1.24;60.03;94508.59;4118973;28;20399;-71
2021/01/15 07:17:01;;;;;;;8.95;5.40;;;;;;;-1.21;60.54;94510.13;4123936;28;20054;-72
2021/01/15 07:19:06;;;;;;;9.15;5.53;;;;;;;-1.05;60.22;94512.63;4123852;28;20106;-74
2021/01/15 07:21:28;;;;;;;6.35;5.00;;;;;;;-0.94;59.52;94517.91;4131553;28;20054;-83
2021/01/15 07:23:52;;;;;;;7.53;5.45;;;;;;;-1.02;59.68;94515.00;4124545;28;20483;-83
2021/01/15 07:26:00;;;;;;;10.05;4.95;;;;;;;-0.91;59.65;94516.91;4137405;28;20046;-84
2021/01/15 07:28:01;;;;;;;9.15;5.57;;;;;;;-0.79;59.30;94520.47;4136672;28;20535;-83
2021/01/15 07:30:04;;;;;;;12.48;5.57;;;;;;;-0.84;59.11;94524.16;4135904;28;20053;-84
2021/01/15 07:32:08;;;;;;;9.57;6.10;;;;;;;-0.89;59.39;94533.88;4147206;28;20160;-83
2021/01/15 07:34:13;;;;;;;9.95;5.55;;;;;;;-0.93;59.03;94535.00;4127812;28;20053;-86
2021/01/15 07:36:30;;;;;;;8.85;5.97;;;;;;;-0.94;59.20;94537.69;4135143;28;20058;-83
2021/01/15 07:38:32;;;;;;;9.45;5.70;;;;;;;-0.90;58.87;94537.41;4137662;28;20082;-84
2021/01/15 07:40:36;;;;;;;7.53;5.50;;;;;;;-0.88;59.29;94543.28;4121825;28;20090;-83
2021/01/15 07:42:57;;;;;;;8.30;5.88;;;;;;;-0.88;59.07;94538.13;4143779;28;20570;-83
2021/01/15 07:44:59;;;;;;;8.02;6.00;;;;;;;-0.79;58.66;94539.31;4130682;28;20050;-84
2021/01/15 07:47:21;;;;;;;9.25;6.40;;;;;;;-0.80;58.98;94541.97;4116039;28;20054;-85
2021/01/15 07:49:23;;;;;;;10.45;6.13;;;;;;;-0.76;59.05;94551.97;4124366;28;20496;-85
2021/01/15 07:51:24;;;;;;;8.50;5.35;;;;;;;-0.75;58.84;94552.78;4134168;28;20269;-72
2021/01/15 07:53:30;;;;;;;6.53;4.82;;;;;;;-0.81;58.94;94558.31;4128129;28;20053;-72
2021/01/15 07:55:57;;;;;;;6.15;4.38;;;;;;;-0.82;58.82;94552.34;4129202;28;20468;-72
2021/01/15 07:57:58;;;;;;;8.50;5.22;;;;;;;-0.95;59.07;94547.13;4129866;28;20058;-71
2021/01/15 08:00:22;;;;;;;8.73;5.72;;;;;;;-0.79;59.15;94548.78;4127356;28;20050;-71
2021/01/15 08:02:24;;;;;;;9.68;5.40;;;;;;;-0.71;58.82;94546.53;4128653;28;20557;-71
2021/01/15 08:04:25;;;;;;;9.05;5.72;;;;;;;-0.75;59.00;94552.78;4133975;28;20043;-85
2021/01/15 08:06:27;;;;;;;11.75;6.13;;;;;;;-0.51;59.05;94553.03;4135705;28;20050;-85
2021/01/15 08:08:28;;;;;;;8.85;5.85;;;;;;;-0.44;58.46;94547.38;4130759;28;20105;-71
2021/01/15 08:10:29;;;;;;;10.55;5.50;;;;;;;-0.39;58.01;94556.56;4134438;28;20054;-82
2021/01/15 08:12:40;;;;;;;9.10;5.05;;;;;;;-0.24;58.23;94547.88;4138196;28;20065;-83
2021/01/15 08:14:42;;;;;;;8.02;5.03;;;;;;;-0.18;57.08;94560.38;4127552;28;20042;-83
2021/01/15 08:16:44;;;;;;;8.75;5.60;;;;;;;-0.11;57.28;94563.38;4138133;28;20059;-83
2021/01/15 08:18:46;;;;;;;7.43;4.57;;;;;;;-0.13;57.07;94565.22;4137698;28;20050;-71
2021/01/15 08:20:54;;;;;;;7.50;5.47;;;;;;;-0.20;57.33;94569.94;4130038;28;20136;-73
2021/01/15 08:22:56;;;;;;;7.93;5.43;;;;;;;-0.17;57.13;94564.59;4128749;28;20058;-71
2021/01/15 08:25:00;;;;;;;10.52;5.43;;;;;;;-0.14;57.06;94568.72;4129285;28;20542;-73
2021/01/15 08:27:01;;;;;;;11.00;5.57;;;;;;;0.06;56.75;94559.72;4129287;28;20076;-72
2021/01/15 08:29:06;;;;;;;7.32;5.30;;;;;;;0.25;56.42;94559.34;4133173;28;20137;-72
2021/01/15 08:31:08;;;;;;;9.70;6.05;;;;;;;0.33;56.21;94560.50;4133427;28;20050;-84
2021/01/15 08:33:12;;;;;;;14.52;6.45;;;;;;;0.34;56.23;94564.72;4136034;28;20081;-83
2021/01/15 08:35:21;;;;;;;;;;;;;;;0.41;56.04;94570.31;4135302;28;20523;-83
2021/01/15 08:37:34;;;;;;;7.10;5.10;;;;;;;0.40;55.47;94572.03;4135325;28;19922;-84
2021/01/15 08:39:50;;;;;;;10.73;4.93;;;;;;;0.20;55.63;94580.28;4118940;28;20050;-85
2021/01/15 08:41:56;;;;;;;8.43;5.72;;;;;;;0.06;56.16;94575.16;4148049;28;20045;-84
2021/01/15 08:43:58;;;;;;;8.43;5.07;;;;;;;0.16;55.89;94582.22;4122875;28;20050;-83
2021/01/15 08:46:00;;;;;;;8.13;5.43;;;;;;;0.31;55.55;94566.69;4135950;28;20142;-87
2021/01/15 08:48:01;;;;;;;6.15;4.70;;;;;;;0.57;54.71;94570.94;4135521;28;20602;-84
2021/01/15 08:50:03;;;;;;;8.27;4.72;;;;;;;0.64;54.35;94571.34;4135667;28;20483;-84
2021/01/15 08:52:05;;;;;;;10.77;4.20;;;;;;;0.85;53.34;94566.53;4148921;28;20054;-85
2021/01/15 08:54:07;;;;;;;13.45;5.97;;;;;;;0.96;53.65;94570.94;4151733;28;20108;-82
2021/01/15 08:56:12;;;;;;;9.25;4.40;;;;;;;0.85;53.77;94569.09;4147270;28;20129;-85
2021/01/15 08:58:13;;;;;;;8.32;5.15;;;;;;;0.90;53.58;94573.94;4133971;28;20064;-84
2021/01/15 09:00:18;;;;;;;11.38;5.38;;;;;;;0.95;53.49;94574.47;4128392;28;20050;-72
2021/01/15 09:02:21;;;;;;;9.98;5.15;;;;;;;1.08;52.34;94566.72;4127192;28;20089;-72
2021/01/15 09:04:24;;;;;;;13.63;7.38;;;;;;;-0.05;55.04;94571.53;4101524;28;20054;-74
2021/01/15 09:06:27;;;;;;;7.82;4.90;;;;;;;-0.27;56.26;94560.94;4137943;28;20538;-74
2021/01/15 09:08:28;;;;;;;10.32;6.28;;;;;;;-0.03;56.33;94564.53;4127778;28;20080;-73
2021/01/15 09:10:30;;;;;;;13.75;7.30;;;;;;;-0.58;57.25;94569.75;4127039;28;20053;-70
2021/01/15 09:12:31;;;;;;;25.23;6.25;;;;;;;-0.65;57.64;94559.03;4124223;28;20164;-72
2021/01/15 09:14:36;;;;;;;11.25;6.47;;;;;;;-0.40;57.27;94554.94;4134485;28;20052;-71
2021/01/15 09:16:38;;;;;;;10.50;6.40;;;;;;;-0.21;56.67;94553.66;4131505;28;20107;-73
2021/01/15 09:18:39;;;;;;;12.88;6.13;;;;;;;-0.56;56.69;94558.47;4118735;28;20055;-72
2021/01/15 09:20:40;;;;;;;16.25;8.45;;;;;;;-0.79;57.37;94557.31;4138843;28;20085;-72
2021/01/15 09:22:43;;;;;;;14.23;7.38;;;;;;;-0.77;57.72;94557.22;4131434;28;20480;-72
2021/01/15 09:24:44;;;;;;;7.82;5.20;;;;;;;-0.91;57.79;94555.47;4124560;28;20042;-72
2021/01/15 09:26:46;;;;;;;9.75;5.60;;;;;;;-0.49;55.83;94544.28;4129411;28;20046;-87
2021/01/15 09:28:47;;;;;;;8.38;5.35;;;;;;;-0.22;55.00;94540.88;4134333;28;20057;-83
2021/01/15 09:30:48;;;;;;;9.90;6.57;;;;;;;-0.48;55.90;94538.22;4136677;28;20064;-84
2021/01/15 09:32:50;;;;;;;13.68;7.60;;;;;;;-0.16;55.63;94540.50;4136684;28;20077;-85
2021/01/15 09:34:51;;;;;;;7.65;4.72;;;;;;;0.08;54.34;94538.09;4134737;28;20047;-85
2021/01/15 09:36:54;;;;;;;19.58;4.22;;;;;;;0.27;53.74;94535.13;4135755;28;20065;-86
2021/01/15 09:38:58;;;;;;;7.03;3.70;;;;;;;0.60;52.84;94536.38;4137758;28;20196;-82
2021/01/15 09:41:06;;;;;;;6.75;4.75;;;;;;;0.64;52.38;94532.69;4142111;28;20050;-86
2021/01/15 09:43:07;;;;;;;5.72;3.67;;;;;;;0.66;52.07;94530.81;4135001;28;20066;-83
2021/01/15 09:45:09;;;;;;;6.55;4.53;;;;;;;0.70;51.40;94529.69;4134092;28;20046;-87
2021/01/15 09:47:10;;;;;;;12.98;5.68;;;;;;;0.64;51.82;94537.03;4132592;28;20057;-86
2021/01/15 09:49:12;;;;;;;11.93;7.03;;;;;;;-0.08;54.01;94543.41;4122308;28;20132;-85
2021/01/15 09:51:14;;;;;;;7.68;5.13;;;;;;;-0.01;53.44;94543.84;4133519;28;20072;-84